Time;durP1;ratioP1;P1;durP2;ratioP2;P2;SDS_P1;SDS_P2;PMS_P1;PMS_P2;Temp;Humidity;BMP_temperature;BMP_pressure;BME280_temperature;BME280_humidity;BME280_pressure;Samples;Min_cycle;Max_cycle;Signal;HPM_P1;HPM_P2
2023/04/20 00:02:06;;;;;;;6.95;6.22;;;14.50;99.90;;;;;;5051223;28;20384;-73
2023/04/20 00:04:33;;;;;;;6.97;6.28;;;14.30;99.90;;;;;;5051872;28;20032;-72
2023/04/20 00:06:59;;;;;;;6.65;5.95;;;14.30;99.90;;;;;;5052554;28;20052;-72
2023/04/20 00:09:25;;;;;;;8.05;5.95;;;14.30;99.90;;;;;;5050998;28;20028;-73
2023/04/20 00:11:51;;;;;;;5.97;5.47;;;14.20;99.90;;;;;;5034234;28;20411;-73
2023/04/20 00:14:18;;;;;;;7.10;5.90;;;14.10;99.90;;;;;;5042201;28;20052;-73
2023/04/20 00:16:44;;;;;;;6.32;5.72;;;14.10;99.90;;;;;;5031045;28;20037;-72
2023/04/20 00:19:10;;;;;;;6.80;6.10;;;14.00;99.90;;;;;;5032769;28;20029;-72
2023/04/20 00:21:37;;;;;;;6.80;6.05;;;14.00;99.90;;;;;;5044752;28;20024;-72
2023/04/20 00:24:03;;;;;;;6.80;6.10;;;13.90;99.90;;;;;;5052031;28;20036;-73
2023/04/20 00:26:29;;;;;;;6.78;5.70;;;13.90;99.90;;;;;;5051744;28;20021;-72
2023/04/20 00:28:55;;;;;;;6.38;5.80;;;13.80;99.90;;;;;;5052530;28;20021;-73
2023/04/20 00:31:21;;;;;;;6.07;5.47;;;13.70;99.90;;;;;;5050370;28;20036;-73
2023/04/20 00:33:47;;;;;;;6.63;6.03;;;13.70;99.90;;;;;;5051073;28;20036;-72
2023/04/20 00:36:13;;;;;;;6.50;5.90;;;13.70;99.90;;;;;;5051107;28;20362;-73
2023/04/20 00:38:39;;;;;;;6.45;5.55;;;13.70;99.90;;;;;;5052147;28;20036;-73
2023/04/20 00:41:06;;;;;;;6.47;5.90;;;13.70;99.90;;;;;;5050555;28;20041;-73
2023/04/20 00:43:32;;;;;;;7.43;6.72;;;13.70;99.90;;;;;;5050063;28;20047;-73
2023/04/20 00:45:58;;;;;;;6.90;6.20;;;13.80;99.90;;;;;;5050680;28;20037;-72
2023/04/20 00:48:24;;;;;;;7.05;5.88;;;13.70;99.90;;;;;;5050814;28;20052;-72
2023/04/20 00:50:50;;;;;;;7.13;6.43;;;13.70;99.90;;;;;;5049810;28;20471;-72
2023/04/20 00:53:16;;;;;;;6.90;6.20;;;13.60;99.90;;;;;;5050600;28;20403;-72
2023/04/20 00:55:43;;;;;;;7.75;6.68;;;13.50;99.90;;;;;;5051037;28;20040;-73
2023/04/20 00:58:10;;;;;;;7.25;6.45;;;13.40;99.90;;;;;;5051015;28;20407;-73
2023/04/20 01:00:37;;;;;;;6.60;5.95;;;13.30;99.90;;;;;;5049305;28;20045;-73
2023/04/20 01:03:03;;;;;;;6.55;5.95;;;13.30;99.90;;;;;;5050452;28;20403;-72
2023/04/20 01:05:29;;;;;;;6.68;5.60;;;13.30;99.90;;;;;;5051633;28;20025;-72
2023/04/20 01:07:55;;;;;;;7.25;6.05;;;13.20;99.90;;;;;;5050917;28;20040;-72
2023/04/20 01:10:22;;;;;;;6.53;5.93;;;13.20;99.90;;;;;;5051973;28;20037;-73
2023/04/20 01:12:48;;;;;;;7.45;6.07;;;13.10;99.90;;;;;;5050655;28;20392;-73
2023/04/20 01:15:14;;;;;;;6.95;6.22;;;13.00;99.90;;;;;;5048950;28;20036;-72
2023/04/20 01:17:42;;;;;;;7.35;6.38;;;13.00;99.90;;;;;;5033872;28;20037;-72
2023/04/20 01:20:11;;;;;;;6.60;6.00;;;13.00;99.90;;;;;;5049862;28;20037;-72
2023/04/20 01:22:45;;;;;;;6.68;5.97;;;13.00;99.90;;;;;;5037666;28;20052;-72
2023/04/20 01:25:11;;;;;;;6.50;5.90;;;13.00;99.90;;;;;;5054899;28;20021;-72
2023/04/20 01:27:37;;;;;;;7.32;6.60;;;12.90;99.90;;;;;;5055629;28;20046;-72
2023/04/20 01:30:03;;;;;;;7.53;6.82;;;12.90;99.90;;;;;;5055742;28;20036;-72
2023/04/20 01:32:30;;;;;;;7.03;6.40;;;12.90;99.90;;;;;;5054761;28;20033;-72
2023/04/20 01:34:56;;;;;;;10.05;6.60;;;12.90;99.90;;;;;;5053602;28;20056;-73
2023/04/20 01:37:22;;;;;;;7.22;6.43;;;12.80;99.90;;;;;;5054169;28;20478;-72
2023/04/20 01:39:48;;;;;;;7.35;6.65;;;12.80;99.90;;;;;;5054204;28;20048;-72
2023/04/20 01:42:14;;;;;;;7.47;6.75;;;12.80;99.90;;;;;;5035031;28;20480;-72
2023/04/20 01:44:40;;;;;;;7.80;6.82;;;12.80;99.90;;;;;;5054218;28;20037;-72
2023/04/20 01:47:07;;;;;;;7.07;6.38;;;12.80;99.90;;;;;;5053654;28;20487;-72
2023/04/20 01:49:33;;;;;;;7.65;6.95;;;12.90;99.90;;;;;;5052367;28;20036;-72
2023/04/20 01:51:59;;;;;;;8.27;7.40;;;12.80;99.90;;;;;;5055884;28;20049;-73
2023/04/20 01:54:25;;;;;;;8.60;7.78;;;12.80;99.90;;;;;;5054869;28;20041;-73
2023/04/20 01:56:51;;;;;;;8.45;7.60;;;12.70;99.90;;;;;;5052785;28;20029;-72
2023/04/20 01:59:17;;;;;;;8.40;7.43;;;12.60;99.90;;;;;;5054952;28;20041;-73
2023/04/20 02:01:43;;;;;;;8.43;7.63;;;12.60;99.90;;;;;;5052678;28;20044;-72
2023/04/20 02:04:09;;;;;;;8.48;7.68;;;12.40;99.90;;;;;;5035255;28;20036;-73
2023/04/20 02:06:35;;;;;;;9.02;8.23;;;12.40;99.90;;;;;;5051814;28;20036;-73
2023/04/20 02:09:01;;;;;;;8.48;7.20;;;12.40;99.90;;;;;;5049187;28;20454;-73
2023/04/20 02:11:27;;;;;;;9.50;8.52;;;12.50;99.90;;;;;;5052720;28;20017;-73
2023/04/20 02:13:53;;;;;;;9.10;7.60;;;12.50;99.90;;;;;;5053925;28;20490;-74
2023/04/20 02:16:21;;;;;;;9.40;8.50;;;12.50;99.90;;;;;;5052021;28;20025;-73
2023/04/20 02:18:47;;;;;;;9.63;8.07;;;12.50;99.90;;;;;;5051657;28;20471;-73
2023/04/20 02:21:13;;;;;;;8.40;7.60;;;12.50;99.90;;;;;;5053180;28;20032;-73
2023/04/20 02:23:39;;;;;;;8.77;7.35;;;12.50;99.90;;;;;;5035716;28;20395;-73
2023/04/20 02:26:05;;;;;;;8.10;7.03;;;12.60;99.90;;;;;;5053470;28;20021;-73
2023/04/20 02:28:31;;;;;;;8.75;7.53;;;12.60;99.90;;;;;;5052017;28;20036;-73
2023/04/20 02:30:58;;;;;;;10.02;8.50;;;12.60;99.90;;;;;;5053119;28;20033;-73
2023/04/20 02:33:24;;;;;;;9.35;8.45;;;12.70;99.90;;;;;;5049711;28;20029;-73
2023/04/20 02:35:50;;;;;;;9.35;8.40;;;12.80;99.90;;;;;;5052701;28;20048;-74
2023/04/20 02:38:16;;;;;;;9.18;8.35;;;12.70;99.90;;;;;;5069443;28;20033;-72
2023/04/20 02:40:42;;;;;;;9.15;8.23;;;12.70;99.90;;;;;;5054639;28;20364;-72
2023/04/20 02:43:08;;;;;;;10.00;9.00;;;12.60;99.90;;;;;;5053013;28;20052;-72
2023/04/20 02:45:34;;;;;;;9.52;8.63;;;12.70;99.90;;;;;;5053474;28;20033;-73
2023/04/20 02:48:00;;;;;;;10.25;7.93;;;12.80;99.90;;;;;;5035542;28;20040;-72
2023/04/20 02:50:26;;;;;;;10.45;8.15;;;12.70;99.90;;;;;;5036674;28;20037;-73
2023/04/20 02:52:52;;;;;;;10.15;7.53;;;12.70;99.90;;;;;;5052519;28;20051;-72
2023/04/20 02:55:19;;;;;;;8.13;7.30;;;12.40;99.90;;;;;;5036201;28;20045;-72
2023/04/20 02:57:45;;;;;;;8.27;7.38;;;12.40;99.90;;;;;;5052733;28;20025;-72
2023/04/20 03:00:12;;;;;;;8.30;7.45;;;12.30;99.90;;;;;;5053516;28;20025;-72
2023/04/20 03:02:38;;;;;;;7.93;7.18;;;12.30;99.90;;;;;;5053910;28;20047;-72
2023/04/20 03:05:05;;;;;;;9.60;7.07;;;12.50;99.90;;;;;;5052216;28;20044;-73
2023/04/20 03:07:31;;;;;;;8.48;7.43;;;12.60;99.90;;;;;;5052624;28;20037;-72
2023/04/20 03:09:58;;;;;;;7.97;7.18;;;12.60;99.90;;;;;;5053025;28;20025;-72
2023/04/20 03:12:25;;;;;;;8.10;7.28;;;12.40;99.90;;;;;;5053940;28;20033;-73
2023/04/20 03:14:51;;;;;;;8.43;7.05;;;12.30;99.90;;;;;;5052673;28;20021;-72
2023/04/20 03:17:17;;;;;;;8.07;7.22;;;12.40;99.90;;;;;;5051216;28;20044;-73
2023/04/20 03:19:43;;;;;;;7.85;7.03;;;12.40;99.90;;;;;;5051900;28;20032;-72
2023/04/20 03:22:09;;;;;;;8.23;7.43;;;12.30;99.90;;;;;;5053434;28;20033;-72
2023/04/20 03:24:35;;;;;;;8.38;7.28;;;12.00;99.90;;;;;;5053708;28;20032;-73
2023/04/20 03:27:01;;;;;;;9.95;7.47;;;11.90;99.90;;;;;;5035416;28;20407;-72
2023/04/20 03:29:27;;;;;;;7.60;6.75;;;11.90;99.90;;;;;;5052449;28;20045;-72
2023/04/20 03:31:54;;;;;;;8.20;7.10;;;11.70;99.90;;;;;;5051538;28;20484;-72
2023/04/20 03:34:20;;;;;;;8.30;7.00;;;11.60;99.90;;;;;;5053151;28;20036;-72
2023/04/20 03:36:46;;;;;;;8.55;7.20;;;11.70;99.90;;;;;;5052204;28;20049;-72
2023/04/20 03:39:12;;;;;;;8.45;6.85;;;11.60;99.90;;;;;;5053595;28;20038;-72
2023/04/20 03:41:38;;;;;;;9.38;7.25;;;11.50;99.90;;;;;;5052048;28;20032;-72
2023/04/20 03:44:06;;;;;;;8.70;7.50;;;11.40;99.90;;;;;;5051440;28;20139;-72
2023/04/20 03:46:32;;;;;;;9.80;6.85;;;11.40;99.90;;;;;;5051345;28;20025;-72
2023/04/20 03:48:58;;;;;;;8.07;7.18;;;11.40;99.90;;;;;;5051292;28;20033;-72
2023/04/20 03:51:25;;;;;;;9.75;7.85;;;11.30;99.90;;;;;;5050383;28;20049;-72
2023/04/20 03:53:51;;;;;;;10.30;7.88;;;11.50;99.90;;;;;;5052077;28;20036;-73
2023/04/20 03:56:17;;;;;;;10.00;8.02;;;11.50;99.90;;;;;;5050479;28;20025;-73
2023/04/20 03:58:43;;;;;;;9.77;7.80;;;11.60;99.90;;;;;;5052478;28;20037;-72
2023/04/20 04:01:09;;;;;;;9.90;8.20;;;11.60;99.90;;;;;;5049186;28;20364;-73
2023/04/20 04:03:36;;;;;;;13.85;8.23;;;11.60;99.90;;;;;;5050842;28;20033;-72
2023/04/20 04:06:02;;;;;;;9.05;7.85;;;11.50;99.90;;;;;;5048373;28;20025;-72
2023/04/20 04:08:28;;;;;;;10.77;8.10;;;11.60;99.90;;;;;;5051699;28;20017;-73
2023/04/20 04:10:54;;;;;;;10.48;8.38;;;11.70;99.90;;;;;;5052776;28;20460;-73
2023/04/20 04:13:20;;;;;;;9.70;7.53;;;11.70;99.90;;;;;;5050739;28;20033;-73
2023/04/20 04:15:46;;;;;;;9.05;7.65;;;11.80;99.90;;;;;;5050560;28;20502;-73
2023/04/20 04:18:13;;;;;;;8.75;7.60;;;11.60;99.90;;;;;;5052536;28;20025;-72
2023/04/20 04:20:39;;;;;;;11.50;7.90;;;11.50;99.90;;;;;;5051148;28;20033;-73
2023/04/20 04:23:05;;;;;;;8.75;7.85;;;11.40;99.90;;;;;;5051827;28;20045;-73
2023/04/20 04:25:32;;;;;;;9.10;7.78;;;11.30;99.90;;;;;;5052574;28;20056;-73
2023/04/20 04:27:58;;;;;;;13.02;8.85;;;11.20;99.90;;;;;;5050808;28;20056;-73
2023/04/20 04:30:26;;;;;;;10.40;7.70;;;11.10;99.90;;;;;;5050348;28;20060;-72
2023/04/20 04:32:52;;;;;;;11.43;8.50;;;11.10;99.90;;;;;;5050477;28;20041;-72
2023/04/20 04:35:18;;;;;;;13.25;8.40;;;10.80;99.90;;;;;;5050368;28;20033;-72
2023/04/20 04:37:44;;;;;;;10.98;7.75;;;10.70;99.90;;;;;;5044462;28;20416;-72
2023/04/20 04:40:11;;;;;;;11.57;7.75;;;10.60;99.90;;;;;;5051073;28;20047;-72
2023/04/20 04:42:37;;;;;;;11.13;8.45;;;10.60;99.90;;;;;;5050720;28;20029;-72
2023/04/20 04:45:04;;;;;;;11.82;8.00;;;10.50;99.90;;;;;;5051023;28;20028;-72
2023/04/20 04:47:34;;;;;;;13.10;8.50;;;10.50;99.90;;;;;;5034302;28;20033;-72
2023/04/20 04:50:04;;;;;;;13.60;8.70;;;10.50;99.90;;;;;;5052333;28;20029;-72
2023/04/20 04:52:31;;;;;;;11.70;8.15;;;10.50;99.90;;;;;;5033694;28;20055;-72
2023/04/20 04:54:58;;;;;;;11.52;8.80;;;10.40;99.90;;;;;;5050973;28;20506;-72
2023/04/20 04:57:24;;;;;;;11.25;8.85;;;10.30;99.90;;;;;;5050932;28;20440;-72
2023/04/20 04:59:50;;;;;;;11.57;8.85;;;10.30;99.90;;;;;;5051091;28;20032;-72
2023/04/20 05:02:17;;;;;;;8.32;6.63;;;10.30;99.90;;;;;;5050347;28;20052;-72
2023/04/20 05:04:43;;;;;;;15.50;8.93;;;10.20;99.90;;;;;;5052061;28;20036;-72
2023/04/20 05:07:12;;;;;;;15.55;9.68;;;10.10;99.90;;;;;;5050248;28;20037;-72
2023/04/20 05:09:39;;;;;;;11.98;9.07;;;10.10;99.90;;;;;;5050934;28;20040;-72
2023/04/20 05:12:05;;;;;;;16.83;8.10;;;10.10;99.90;;;;;;5050478;28;20025;-72
2023/04/20 05:14:32;;;;;;;13.38;9.13;;;10.00;99.90;;;;;;5050901;28;20428;-72
2023/04/20 05:16:59;;;;;;;13.75;9.00;;;10.00;99.90;;;;;;5033434;28;20048;-73
2023/04/20 05:19:25;;;;;;;12.40;8.80;;;10.10;99.90;;;;;;5050989;28;20040;-73
2023/04/20 05:21:51;;;;;;;10.20;8.18;;;10.10;99.90;;;;;;5050174;28;20491;-72
2023/04/20 05:24:18;;;;;;;12.80;9.10;;;10.10;99.90;;;;;;5051716;28;20048;-72
2023/04/20 05:26:45;;;;;;;13.60;9.30;;;10.10;99.90;;;;;;5051462;28;20029;-73
2023/04/20 05:29:11;;;;;;;13.65;9.25;;;10.00;99.90;;;;;;5034381;28;20033;-72
2023/04/20 05:31:37;;;;;;;17.08;9.63;;;10.00;99.90;;;;;;5033747;28;20029;-72
2023/04/20 05:34:03;;;;;;;13.50;10.00;;;10.00;99.90;;;;;;5034140;28;20467;-72
2023/04/20 05:36:29;;;;;;;12.73;8.80;;;10.00;99.90;;;;;;5050034;28;20044;-72
2023/04/20 05:38:55;;;;;;;12.15;9.07;;;10.00;99.90;;;;;;5049938;28;20041;-72
2023/04/20 05:41:25;;;;;;;13.05;9.02;;;10.10;99.90;;;;;;5051494;28;20032;-72
2023/04/20 05:43:55;;;;;;;12.20;8.32;;;10.00;99.90;;;;;;5050462;28;20036;-73
2023/04/20 05:46:22;;;;;;;14.70;9.52;;;10.00;99.90;;;;;;5051191;28;20044;-73
2023/04/20 05:48:48;;;;;;;12.88;7.78;;;10.10;99.90;;;;;;5050530;28;20033;-72
2023/04/20 05:51:14;;;;;;;15.20;10.43;;;10.20;99.90;;;;;;5029337;28;20041;-73
2023/04/20 05:53:40;;;;;;;17.23;8.95;;;10.30;99.90;;;;;;5030667;28;20038;-73
2023/04/20 05:56:07;;;;;;;16.00;9.52;;;10.40;99.90;;;;;;5031288;28;20487;-73
2023/04/20 05:58:33;;;;;;;16.67;8.38;;;10.50;99.90;;;;;;5030616;28;20034;-73
2023/04/20 06:01:02;;;;;;;14.02;8.48;;;10.70;99.90;;;;;;5013807;28;20053;-73
2023/04/20 06:03:29;;;;;;;11.90;8.85;;;10.60;99.90;;;;;;5030303;28;20395;-72
2023/04/20 06:05:55;;;;;;;13.20;8.77;;;10.70;99.90;;;;;;5046099;28;20032;-71
2023/04/20 06:08:21;;;;;;;15.23;9.00;;;10.80;99.90;;;;;;5052892;28;20040;-73
2023/04/20 06:10:47;;;;;;;10.57;8.60;;;10.80;99.90;;;;;;5036276;28;20029;-73
2023/04/20 06:13:13;;;;;;;11.90;8.25;;;10.90;99.90;;;;;;5053986;28;20029;-74
2023/04/20 06:15:39;;;;;;;9.65;7.45;;;11.00;99.90;;;;;;5053989;28;20479;-73
2023/04/20 06:18:05;;;;;;;10.57;8.45;;;11.00;99.90;;;;;;5048067;28;20052;-73
2023/04/20 06:20:31;;;;;;;11.98;8.48;;;10.90;99.90;;;;;;5055046;28;20025;-73
2023/04/20 06:22:57;;;;;;;10.85;8.00;;;10.90;99.90;;;;;;5051802;28;20032;-73
2023/04/20 06:25:24;;;;;;;18.13;8.88;;;10.70;99.90;;;;;;5042818;28;20025;-72
2023/04/20 06:27:50;;;;;;;10.77;7.88;;;10.60;99.90;;;;;;5035465;28;20037;-73
2023/04/20 06:30:16;;;;;;;6.00;5.22;;;10.50;99.90;;;;;;5052433;28;20036;-72
2023/04/20 06:32:42;;;;;;;8.02;6.70;;;10.30;99.90;;;;;;5054407;28;20029;-73
2023/04/20 06:35:08;;;;;;;11.82;8.93;;;10.30;99.90;;;;;;5053332;28;20036;-73
2023/04/20 06:37:35;;;;;;;9.30;6.80;;;10.30;99.90;;;;;;5054669;28;20475;-73
2023/04/20 06:40:06;;;;;;;13.52;9.80;;;10.40;99.90;;;;;;5052842;28;20487;-73
2023/04/20 06:42:32;;;;;;;9.63;7.53;;;10.30;99.90;;;;;;5035693;28;20041;-73
2023/04/20 06:44:59;;;;;;;12.20;8.77;;;10.40;99.90;;;;;;5052551;28;20056;-73
2023/04/20 06:47:30;;;;;;;11.43;9.02;;;10.50;99.90;;;;;;5052651;28;20051;-72
2023/04/20 06:49:57;;;;;;;13.75;8.50;;;10.60;99.90;;;;;;5049287;28;20033;-73
2023/04/20 06:52:23;;;;;;;11.52;7.93;;;10.80;99.90;;;;;;5052593;28;20048;-73
2023/04/20 06:54:49;;;;;;;14.70;7.90;;;11.00;99.90;;;;;;5051254;28;20491;-73
2023/04/20 06:57:16;;;;;;;13.10;8.88;;;11.30;99.90;;;;;;5052617;28;20017;-73
2023/04/20 06:59:42;;;;;;;12.35;8.27;;;11.60;99.90;;;;;;5053759;28;20036;-73
2023/04/20 07:02:08;;;;;;;16.52;9.32;;;11.80;99.90;;;;;;5051920;28;20480;-73
2023/04/20 07:04:34;;;;;;;12.77;8.70;;;11.90;99.90;;;;;;5043967;28;20036;-68
2023/04/20 07:07:00;;;;;;;15.07;8.65;;;12.10;99.90;;;;;;5053935;28;20375;-72
2023/04/20 07:09:26;;;;;;;11.50;8.60;;;12.30;99.90;;;;;;5052366;28;20028;-72
2023/04/20 07:11:52;;;;;;;12.95;7.80;;;12.40;99.90;;;;;;5052024;28;20535;-72
2023/04/20 07:14:19;;;;;;;9.77;7.45;;;12.50;99.90;;;;;;5053276;28;20037;-72
2023/04/20 07:16:45;;;;;;;9.05;7.22;;;12.40;99.90;;;;;;5032461;28;20037;-71
2023/04/20 07:19:11;;;;;;;8.43;6.35;;;12.60;99.90;;;;;;5051856;28;20029;-72
2023/04/20 07:21:37;;;;;;;14.30;8.70;;;12.60;99.90;;;;;;5052417;28;20029;-72
2023/04/20 07:24:04;;;;;;;9.07;7.85;;;12.70;99.90;;;;;;5041888;28;20415;-72
2023/04/20 07:26:30;;;;;;;15.82;8.02;;;12.70;99.90;;;;;;5052541;28;20033;-73
2023/04/20 07:28:56;;;;;;;11.30;7.85;;;12.90;99.90;;;;;;5053810;28;20036;-72
2023/04/20 07:31:22;;;;;;;15.27;8.45;;;12.90;99.90;;;;;;5035066;28;20044;-72
2023/04/20 07:33:49;;;;;;;8.82;7.93;;;13.00;99.90;;;;;;5051670;28;20048;-72
2023/04/20 07:36:15;;;;;;;11.57;8.18;;;13.10;99.90;;;;;;5050813;28;20048;-73
2023/04/20 07:38:41;;;;;;;11.55;8.73;;;13.20;99.90;;;;;;5051266;28;20044;-73
2023/04/20 07:41:09;;;;;;;11.75;8.30;;;13.50;99.90;;;;;;5053497;28;20040;-73
2023/04/20 07:43:35;;;;;;;14.95;8.73;;;13.50;99.90;;;;;;5051461;28;20041;-73
2023/04/20 07:46:01;;;;;;;9.70;8.05;;;13.60;99.90;;;;;;5052979;28;20033;-72
2023/04/20 07:48:27;;;;;;;7.53;6.72;;;13.70;99.90;;;;;;5035391;28;20044;-73
2023/04/20 07:50:53;;;;;;;11.95;7.85;;;13.70;99.90;;;;;;5053133;28;20388;-72
2023/04/20 07:53:19;;;;;;;8.70;7.60;;;13.70;99.90;;;;;;5052487;28;20037;-73
2023/04/20 07:55:45;;;;;;;9.18;8.20;;;13.80;99.90;;;;;;5051931;28;20039;-73
2023/04/20 07:58:13;;;;;;;5.72;5.22;;;13.90;99.90;;;;;;5053260;28;20029;-73
2023/04/20 08:00:39;;;;;;;10.60;8.55;;;13.90;99.90;;;;;;5051414;28;20041;-73
2023/04/20 08:03:05;;;;;;;13.13;8.98;;;14.00;99.90;;;;;;5052123;28;20395;-73
2023/04/20 08:05:31;;;;;;;10.88;8.55;;;14.20;99.90;;;;;;5039847;28;20045;-71
2023/04/20 08:07:58;;;;;;;8.52;7.50;;;14.30;99.90;;;;;;5048050;28;20029;-73
2023/04/20 08:10:24;;;;;;;11.80;8.45;;;14.40;99.90;;;;;;5036470;28;20040;-73
2023/04/20 08:12:52;;;;;;;10.60;9.05;;;14.40;99.90;;;;;;5051412;28;20029;-72
2023/04/20 08:15:18;;;;;;;10.65;8.57;;;14.30;99.90;;;;;;5050063;28;20036;-72
2023/04/20 08:17:44;;;;;;;10.85;8.70;;;14.60;99.90;;;;;;5047771;28;20040;-72
2023/04/20 08:20:11;;;;;;;9.85;8.60;;;14.70;99.90;;;;;;5048597;28;20025;-72
2023/04/20 08:22:37;;;;;;;11.27;9.07;;;14.90;99.90;;;;;;5050557;28;20037;-72
2023/04/20 08:25:04;;;;;;;11.23;7.72;;;15.00;99.90;;;;;;5050623;28;20045;-71
2023/04/20 08:27:31;;;;;;;9.40;8.50;;;14.90;99.90;;;;;;5034017;28;20051;-72
2023/04/20 08:29:57;;;;;;;8.73;7.93;;;14.90;99.90;;;;;;5043124;28;20040;-72
2023/04/20 08:32:25;;;;;;;10.32;8.43;;;14.80;99.90;;;;;;5049383;28;20036;-72
2023/04/20 08:34:52;;;;;;;8.45;7.65;;;15.00;99.90;;;;;;5047031;28;20510;-72
2023/04/20 08:37:19;;;;;;;9.45;8.18;;;15.10;99.90;;;;;;5047511;28;20045;-72
2023/04/20 08:39:45;;;;;;;15.52;8.80;;;15.30;99.90;;;;;;5057205;28;20028;-72
2023/04/20 08:42:11;;;;;;;9.90;8.93;;;15.30;99.90;;;;;;5051528;28;20034;-73
2023/04/20 08:44:37;;;;;;;10.63;8.65;;;15.50;99.90;;;;;;5050849;28;20044;-72
2023/04/20 08:47:03;;;;;;;9.63;8.70;;;15.60;99.90;;;;;;5051859;28;20033;-72
2023/04/20 08:49:30;;;;;;;10.32;8.82;;;15.50;99.90;;;;;;5033339;28;20383;-72
2023/04/20 08:51:56;;;;;;;10.95;9.50;;;15.80;99.90;;;;;;5050829;28;20052;-72
2023/04/20 08:54:22;;;;;;;10.98;9.10;;;15.80;99.90;;;;;;5051544;28;20039;-72
2023/04/20 08:56:48;;;;;;;10.13;8.80;;;15.90;99.90;;;;;;5051851;28;20029;-72
2023/04/20 08:59:15;;;;;;;10.15;8.93;;;16.10;99.90;;;;;;5051042;28;20033;-72
2023/04/20 09:01:42;;;;;;;8.63;7.88;;;15.90;99.90;;;;;;5047100;28;20036;-72
2023/04/20 09:04:15;;;;;;;11.75;8.73;;;15.90;99.90;;;;;;5046401;28;20043;-72
2023/04/20 09:06:51;;;;;;;13.02;9.02;;;15.90;99.90;;;;;;5051908;28;20029;-72
2023/04/20 09:09:18;;;;;;;11.88;9.50;;;16.10;99.90;;;;;;5051901;28;20022;-72
2023/04/20 09:11:44;;;;;;;11.23;8.65;;;16.10;99.90;;;;;;5050420;28;20044;-72
2023/04/20 09:14:12;;;;;;;20.38;8.85;;;16.10;99.90;;;;;;5026765;28;20519;-72
2023/04/20 09:16:52;;;;;;;10.93;8.45;;;16.40;99.90;;;;;;5048487;28;20406;-72
2023/04/20 09:19:23;;;;;;;12.35;8.93;;;16.60;99.90;;;;;;5064025;28;20403;-71
2023/04/20 09:21:50;;;;;;;8.98;8.10;;;16.50;99.90;;;;;;5051004;28;20029;-72
2023/04/20 09:24:18;;;;;;;9.57;8.35;;;16.50;99.90;;;;;;5048383;28;20041;-72
2023/04/20 09:26:44;;;;;;;9.95;8.98;;;16.50;99.90;;;;;;5047563;28;20017;-72
2023/04/20 09:29:21;;;;;;;12.88;8.98;;;16.80;99.90;;;;;;5047885;28;20032;-71
2023/04/20 09:31:47;;;;;;;11.93;8.90;;;16.50;99.90;;;;;;5041508;28;20036;-72
2023/04/20 09:34:13;;;;;;;10.23;8.18;;;16.30;99.90;;;;;;5048882;28;20040;-72
2023/04/20 09:36:49;;;;;;;15.68;8.60;;;16.60;99.90;;;;;;5049355;28;20152;-72
2023/04/20 09:39:22;;;;;;;16.42;7.97;;;16.80;99.90;;;;;;5038637;28;20041;-71
2023/04/20 09:41:49;;;;;;;8.60;7.22;;;16.90;99.90;;;;;;5036534;28;20029;-72
2023/04/20 09:44:15;;;;;;;8.77;7.95;;;16.70;99.90;;;;;;5053723;28;20079;-72
2023/04/20 09:46:42;;;;;;;19.00;10.30;;;16.80;99.90;;;;;;5046619;28;20510;-72
2023/04/20 09:49:09;;;;;;;8.93;8.13;;;16.80;99.90;;;;;;5036175;28;20403;-71
2023/04/20 09:51:37;;;;;;;12.02;9.10;;;16.70;99.90;;;;;;5032050;28;20399;-71
2023/04/20 09:54:04;;;;;;;10.48;9.15;;;16.90;99.90;;;;;;5057478;28;20487;-71
2023/04/20 09:56:31;;;;;;;11.57;8.25;;;17.00;99.90;;;;;;5052743;28;20029;-71
2023/04/20 09:58:58;;;;;;;9.85;8.95;;;17.10;99.90;;;;;;5052653;28;20040;-72
2023/04/20 10:01:24;;;;;;;10.63;9.02;;;17.10;99.90;;;;;;5053378;28;20021;-72
2023/04/20 10:03:52;;;;;;;9.05;8.15;;;17.30;99.90;;;;;;5053481;28;20029;-72
2023/04/20 10:06:23;;;;;;;7.97;7.38;;;17.30;99.90;;;;;;5051939;28;20033;-71
2023/04/20 10:08:50;;;;;;;9.95;8.93;;;17.30;99.90;;;;;;5053385;28;20479;-72
2023/04/20 10:11:29;;;;;;;8.65;7.88;;;17.20;99.90;;;;;;5054012;28;20033;-72
2023/04/20 10:13:56;;;;;;;7.90;7.13;;;17.40;99.90;;;;;;5054266;28;20040;-72
2023/04/20 10:16:22;;;;;;;9.15;8.23;;;17.50;99.90;;;;;;5052802;28;20037;-72
2023/04/20 10:18:55;;;;;;;9.45;8.38;;;17.50;99.90;;;;;;5032012;28;20075;-71
2023/04/20 10:21:21;;;;;;;9.88;8.35;;;17.50;99.90;;;;;;5053419;28;20037;-71
2023/04/20 10:23:49;;;;;;;9.95;7.50;;;17.50;99.50;;;;;;5052959;28;20045;-72
2023/04/20 10:26:15;;;;;;;8.55;7.47;;;17.50;99.50;;;;;;5036128;28;20037;-72
2023/04/20 10:28:43;;;;;;;8.98;8.10;;;17.70;99.80;;;;;;5054391;28;20049;-72
2023/04/20 10:31:12;;;;;;;10.55;8.13;;;17.80;98.70;;;;;;5053797;28;20391;-70
2023/04/20 10:33:54;;;;;;;8.70;8.00;;;17.70;98.30;;;;;;5052665;28;20040;-70
2023/04/20 10:36:31;;;;;;;9.10;8.30;;;17.60;98.80;;;;;;5052847;28;20033;-70
2023/04/20 10:38:57;;;;;;;10.57;9.68;;;17.60;98.70;;;;;;5038200;28;20033;-70
2023/04/20 10:41:23;;;;;;;10.25;9.32;;;17.80;98.90;;;;;;5074129;28;20028;-70
2023/04/20 10:43:50;;;;;;;9.68;8.90;;;17.90;98.80;;;;;;5046244;28;20502;-70
2023/04/20 10:46:20;;;;;;;8.65;7.85;;;18.00;97.50;;;;;;5044869;28;20041;-70
2023/04/20 10:48:53;;;;;;;8.90;8.07;;;18.10;97.00;;;;;;5052034;28;20044;-70
2023/04/20 10:51:19;;;;;;;8.10;7.47;;;18.10;97.20;;;;;;5053796;28;20049;-70
2023/04/20 10:53:45;;;;;;;8.15;7.50;;;17.90;96.90;;;;;;5034352;28;20052;-70
2023/04/20 10:56:11;;;;;;;9.65;8.75;;;17.80;96.70;;;;;;5048836;28;20021;-70
2023/04/20 10:58:39;;;;;;;8.73;8.02;;;17.90;97.00;;;;;;5050305;28;20040;-69
2023/04/20 11:01:05;;;;;;;9.70;9.10;;;18.10;96.50;;;;;;5048899;28;20056;-69
2023/04/20 11:03:32;;;;;;;8.82;7.82;;;18.20;95.20;;;;;;5049945;28;20391;-69
2023/04/20 11:06:02;;;;;;;8.45;7.75;;;18.20;95.20;;;;;;5052290;28;20037;-69
2023/04/20 11:08:37;;;;;;;8.07;7.47;;;18.20;93.60;;;;;;5051557;28;20025;-69
2023/04/20 11:11:03;;;;;;;8.02;7.43;;;18.30;94.70;;;;;;5051441;28;20537;-70
2023/04/20 11:13:31;;;;;;;9.07;8.23;;;18.60;93.90;;;;;;5051304;28;20038;-70
2023/04/20 11:15:58;;;;;;;8.85;7.95;;;18.40;93.50;;;;;;5052138;28;20037;-70
2023/04/20 11:18:24;;;;;;;9.13;8.00;;;18.20;93.70;;;;;;5041325;28;20033;-69
2023/04/20 11:20:54;;;;;;;8.68;7.97;;;18.30;93.80;;;;;;5050649;28;20491;-70
2023/04/20 11:23:21;;;;;;;8.85;8.10;;;18.50;93.30;;;;;;5050125;28;20036;-70
2023/04/20 11:25:51;;;;;;;9.07;8.30;;;18.60;92.40;;;;;;5052386;28;20600;-70
2023/04/20 11:28:17;;;;;;;9.27;8.48;;;18.50;90.90;;;;;;5033192;28;20028;-70
2023/04/20 11:30:43;;;;;;;8.98;8.15;;;18.60;91.00;;;;;;5051018;28;20033;-70
2023/04/20 11:33:09;;;;;;;8.70;7.93;;;18.80;91.30;;;;;;5050260;28;20029;-70
2023/04/20 11:35:40;;;;;;;8.77;8.02;;;18.80;91.20;;;;;;5050842;28;20036;-70
2023/04/20 11:38:06;;;;;;;8.93;8.23;;;18.90;91.10;;;;;;5031225;28;20036;-70
2023/04/20 11:40:32;;;;;;;9.38;8.63;;;19.00;91.40;;;;;;5037990;28;20040;-70
2023/04/20 11:42:59;;;;;;;9.43;8.73;;;19.10;90.50;;;;;;5051089;28;20037;-70
2023/04/20 11:45:26;;;;;;;10.07;9.05;;;19.00;89.80;;;;;;5050077;28;20041;-70
2023/04/20 11:47:55;;;;;;;8.70;7.85;;;19.10;87.60;;;;;;5049170;28;20389;-71
2023/04/20 11:50:22;;;;;;;7.70;7.10;;;18.80;87.50;;;;;;5034982;28;20040;-70
2023/04/20 11:52:48;;;;;;;7.40;7.00;;;18.70;87.50;;;;;;5052035;28;20056;-70
2023/04/20 11:55:14;;;;;;;8.18;7.57;;;18.10;87.60;;;;;;5033704;28;20491;-70
2023/04/20 11:57:40;;;;;;;9.18;8.50;;;18.20;86.90;;;;;;5051410;28;20033;-70
2023/04/20 12:00:07;;;;;;;8.93;8.05;;;18.40;86.30;;;;;;5049969;28;20465;-69
2023/04/20 12:02:33;;;;;;;8.80;8.10;;;18.40;86.80;;;;;;5051432;28;20048;-70
2023/04/20 12:05:01;;;;;;;9.75;7.97;;;18.40;84.70;;;;;;5048419;28;20377;-70
2023/04/20 12:07:27;;;;;;;8.95;8.25;;;18.40;85.10;;;;;;5050373;28;20049;-70
2023/04/20 12:09:53;;;;;;;9.00;8.30;;;18.50;85.80;;;;;;5050675;28;20052;-70
2023/04/20 12:12:19;;;;;;;8.38;7.78;;;18.50;85.40;;;;;;5050112;28;20021;-70
2023/04/20 12:14:45;;;;;;;9.13;8.52;;;18.70;83.10;;;;;;5050867;28;20403;-70
2023/04/20 12:17:11;;;;;;;8.85;8.25;;;18.70;82.30;;;;;;5050834;28;20056;-70
2023/04/20 12:19:37;;;;;;;8.48;7.88;;;18.40;81.70;;;;;;5047083;28;20502;-70
2023/04/20 12:22:03;;;;;;;8.35;7.65;;;18.50;81.50;;;;;;5051394;28;20052;-70
2023/04/20 12:24:30;;;;;;;8.52;7.85;;;18.60;81.60;;;;;;5052058;28;20048;-70
2023/04/20 12:26:58;;;;;;;8.45;7.95;;;18.60;82.00;;;;;;5050311;28;20384;-70
2023/04/20 12:29:24;;;;;;;9.23;8.38;;;18.70;80.80;;;;;;5050937;28;20028;-70
2023/04/20 12:31:50;;;;;;;8.35;7.85;;;18.70;80.10;;;;;;5050821;28;20033;-70
2023/04/20 12:34:16;;;;;;;8.23;7.60;;;18.80;78.70;;;;;;5031606;28;20622;-70
2023/04/20 12:36:42;;;;;;;8.18;7.68;;;18.90;78.50;;;;;;5049227;28;20029;-70
2023/04/20 12:39:10;;;;;;;9.55;8.73;;;18.80;76.00;;;;;;5048677;28;20048;-70
2023/04/20 12:41:36;;;;;;;8.60;8.00;;;18.90;77.70;;;;;;5046216;28;20036;-70